EDDR 250250Z 22010KT 9999 FEW007 BKN013 10/08 Q1000 EDDR 250220Z 22009KT 9999 FEW005 BKN012 10/09 Q1000 EDDR 250150Z 22009KT 9999 FEW008 SCT024 10/09 Q1001 EDDR 250120Z 23008KT 9999 FEW008 10/09 Q1001 EDDR 250050Z 26008KT 9999 -SHRA FEW005 FEW017CB BKN046 10/09 Q1001 RESHRA EDDR 250020Z 27016KT 8000 SHRA FEW005 BKN017CB 10/09 Q1001 EDDR 242350Z 20012KT 160V230 9999 BKN008 13/12 Q1000 EDDR 242320Z 19012KT 160V220 9999 FEW007 BKN013 13/12 Q1000 EDDR 242250Z 19011KT 170V240 9999 SCT007 BKN015 13/12 Q1000 EDDR 242220Z 19008KT 160V220 9999 BKN007 13/12 Q1000 EDDR 242150Z 22011KT 9999 SCT010 13/11 Q1001 EDDR 242120Z 21012KT 170V240 9999 -RA BKN008 13/12 Q1001 EDDR 242050Z 21009KT 9999 FEW012 13/11 Q1002 EDDR 242020Z 21009KT 9999 FEW012 13/12 Q1002 NOSIG EDDR 241950Z 19006KT 160V230 9999 FEW007 13/12 Q1002 NOSIG EDDR 241920Z 19007KT 9999 FEW007 13/12 Q1002 NOSIG EDDR 241850Z 18005KT 9999 FEW030 13/13 Q1002 NOSIG EDDR 241820Z 17005KT 140V200 9999 FEW030 14/13 Q1002 NOSIG EDDR 241750Z 13007KT 100V190 9999 FEW008 SCT030 14/13 Q1002 RERA NOSIG EDDR 241720Z 14004KT 100V190 9999 -RA FEW020 14/13 Q1003 NOSIG EDDR 241650Z 11003KT 080V150 9999 -RA FEW020 14/13 Q1003 NOSIG EDDR 241620Z VRB02KT 9999 -RA FEW020 14/12 Q1004 NOSIG EDDR 241550Z VRB02KT 9999 -RA FEW020 14/12 Q1004 NOSIG EDDR 241520Z 18004KT 140V220 9999 -RA FEW017 SCT035 15/12 Q1005 NOSIG EDDR 241450Z 17007KT 9999 -RA FEW017 SCT035 15/12 Q1005 NOSIG EDDR 241420Z 19010KT 160V220 9999 FEW020 SCT036 15/12 Q1005 NOSIG EDDR 241350Z 19011KT 150V220 9999 -RADZ FEW015 BKN037 15/12 Q1006 NOSIG EDDR 241320Z 19009KT 150V220 9999 -RA FEW015 BKN037 15/11 Q1006 NOSIG EDDR 241250Z 20011KT 160V230 9999 -RA FEW015 BKN043 15/11 Q1007 NOSIG EDDR 241220Z 20011KT 150V230 9999 FEW015 16/11 Q1007 NOSIG EDDR 241150Z 20012G22KT 160V220 9999 -RA FEW017 16/12 Q1007 NOSIG EDDR 241120Z 21008KT 170V250 9999 FEW030 16/11 Q1007 NOSIG EDDR 241050Z 19006KT 150V230 9999 -RA FEW026 16/10 Q1007 NOSIG EDDR 241020Z 22008KT 170V250 9999 FEW030 SCT045 15/09 Q1008 NOSIG EDDR 240950Z 19006KT 130V230 9999 FEW030 BKN045 15/09 Q1008 NOSIG EDDR 240920Z 23006KT 210V270 9999 FEW030 BKN044 14/09 Q1008 NOSIG EDDR 240850Z 24006KT 9999 FEW030 BKN047 14/09 Q1009 NOSIG EDDR 240820Z 23007KT CAVOK 13/08 Q1009 NOSIG EDDR 240750Z 25005KT CAVOK 13/09 Q1009 NOSIG EDDR 240720Z 24006KT CAVOK 12/08 Q1009 NOSIG EDDR 240650Z 24007KT CAVOK 12/08 Q1009 NOSIG EDDR 240620Z 24008KT CAVOK 11/09 Q1008 NOSIG EDDR 240550Z 24012KT CAVOK 11/09 Q1008 NOSIG EDDR 240520Z 24010KT 9999 FEW010 12/10 Q1007 NOSIG EDDR 240450Z 25009KT 9999 FEW010 13/11 Q1007 NOSIG EDDR 240420Z 26017KT 9999 -RADZ FEW007 BKN010 14/13 Q1007 BECMG SCT010 EDDR 240350Z 24014KT 9999 FEW013 SCT040 15/13 Q1006 NOSIG EDDR 240320Z 24012KT 9999 SCT010 BKN038 15/14 Q1006 EDDR 240250Z 23013KT 9999 FEW011 BKN045 15/14 Q1005 EDDR 240220Z 23013KT 9999 -RA FEW014 SCT022 15/14 Q1005 EDDR 240150Z 23012KT 9999 -RA SCT030 16/14 Q1005 EDDR 240120Z 21013KT 9999 -RA NSC 16/13 Q1004 EDDR 240050Z 21013KT CAVOK 17/12 Q1004 EDDR 240020Z 22013KT CAVOK 17/12 Q1004 EDDR 232350Z 19013KT 160V220 CAVOK 17/12 Q1004 EDDR 232320Z 18009KT CAVOK 17/12 Q1004 EDDR 232250Z 19008KT 160V220 CAVOK 17/12 Q1005 EDDR 232220Z 18008KT CAVOK 17/12 Q1005 EDDR 232150Z 18006KT CAVOK 17/12 Q1005 EDDR 232120Z 18008KT 140V200 CAVOK 17/12 Q1005 EDDR 232050Z 18007KT CAVOK 17/12 Q1006 EDDR 232020Z 18006KT CAVOK 17/13 Q1006 NOSIG EDDR 231950Z 17007KT CAVOK 17/13 Q1006 NOSIG EDDR 231920Z 17006KT CAVOK 17/13 Q1006 NOSIG EDDR 231850Z 19006KT 160V220 CAVOK 17/13 Q1006 NOSIG EDDR 231820Z 20003KT 170V240 CAVOK 16/13 Q1006 NOSIG EDDR 231750Z 15003KT 120V200 9999 FEW035 16/14 Q1006 NOSIG EDDR 231720Z 13003KT 100V170 9999 FEW040 17/14 Q1006 NOSIG EDDR 231650Z VRB02KT 9999 FEW040 17/15 Q1007 NOSIG EDDR 231620Z VRB02KT 9999 FEW038 18/14 Q1007 NOSIG EDDR 231550Z 16003KT 080V240 9999 VCSH FEW035CB 17/15 Q1007 RESHRA NOSIG EDDR 231520Z 27006KT 230V320 9999 SHRA VCTS FEW010 SCT035CB 15/14 Q1007 RETS BECMG 23010KT NSW

METAR Messwerte

Zurück zur Übersicht

Ort
m ü. NN
Zeit Temperatur Taupunkt Rel.
Luftfeuchte
Luftdruck:
Altimeter
NN
Station
Wind in Beaufort
(Knoten)
Sichtweite
(Meter)
Wolken
(Meter über Grund)
Wettererscheinung
Saarbrücken/Ensheim
320
Fr 25.09. 04:5010887 %1000
1001
963
SW 3 (10)>= 10000Stark bewölkt (400)
Leicht bewölkt (210)
 
Saarbrücken/Ensheim
320
Fr 25.09. 04:2010993 %1000
1001
963
SW 3 (9)>= 10000Stark bewölkt (370)
Leicht bewölkt (150)
 
Saarbrücken/Ensheim
320
Fr 25.09. 03:5010993 %1001
1002
964
SW 3 (9)>= 10000Wolkig (730)
Leicht bewölkt (240)
 
Saarbrücken/Ensheim
320
Fr 25.09. 03:2010993 %1001
1002
964
SW 3 (8)>= 10000Leicht bewölkt (240) 
Saarbrücken/Ensheim
320
Fr 25.09. 02:5010993 %1001
1002
964
W 3 (8)>= 10000Stark bewölkt (1400)
Leicht bewölkt Cb (520)
Leicht bewölkt (150)
Regen-Schauer (schwach)
Saarbrücken/Ensheim
320
Fr 25.09. 02:2010993 %1001
1002
964
W 5 (16)8000Stark bewölkt Cb (520)
Leicht bewölkt (150)
Regen-Schauer
Saarbrücken/Ensheim
320
Fr 25.09. 01:50131294 %1000
1000
963
SSW 4 (12)
SSO - SW
>= 10000Stark bewölkt (240) 
Saarbrücken/Ensheim
320
Fr 25.09. 01:20131294 %1000
1000
963
S 4 (12)
SSO - SW
>= 10000Stark bewölkt (400)
Leicht bewölkt (210)
 
Saarbrücken/Ensheim
320
Fr 25.09. 00:50131294 %1000
1000
963
S 4 (11)
S - WSW
>= 10000Stark bewölkt (460)
Wolkig (210)
 
Saarbrücken/Ensheim
320
Fr 25.09. 00:20131294 %1000
1000
963
S 3 (8)
SSO - SW
>= 10000Stark bewölkt (210) 
Saarbrücken/Ensheim
320
Do 24.09. 23:50131188 %1001
1001
964
SW 4 (11)>= 10000Wolkig (300) 
Saarbrücken/Ensheim
320
Do 24.09. 23:20131294 %1001
1001
964
SSW 4 (12)
S - WSW
>= 10000Stark bewölkt (240)Regen (schwach)
Saarbrücken/Ensheim
320
Do 24.09. 22:50131188 %1002
1002
964
SSW 3 (9)>= 10000Leicht bewölkt (370) 
Saarbrücken/Ensheim
320
Do 24.09. 22:20131294 %1002
1002
964
SSW 3 (9)>= 10000Leicht bewölkt (370) 
Saarbrücken/Ensheim
320
Do 24.09. 21:50131294 %1002
1002
964
S 2 (6)
SSO - SW
>= 10000Leicht bewölkt (210) 
Saarbrücken/Ensheim
320
Do 24.09. 21:20131294 %1002
1002
964
S 3 (7)>= 10000Leicht bewölkt (210) 
Saarbrücken/Ensheim
320
Do 24.09. 20:501313100 %1002
1002
964
S 2 (5)>= 10000Leicht bewölkt (910) 
Saarbrücken/Ensheim
320
Do 24.09. 20:20141394 %1002
1002
964
S 2 (5)
SO - SSW
>= 10000Leicht bewölkt (910) 
Saarbrücken/Ensheim
320
Do 24.09. 19:50141394 %1002
1002
964
SO 3 (7)
O - S
>= 10000Wolkig (910)
Leicht bewölkt (240)
 
Saarbrücken/Ensheim
320
Do 24.09. 19:20141394 %1003
1003
965
SO 2 (4)
O - S
>= 10000Leicht bewölkt (610)Regen (schwach)
Saarbrücken/Ensheim
320
Do 24.09. 18:50141394 %1003
1003
965
OSO 2 (3)
O - SSO
>= 10000Leicht bewölkt (610)Regen (schwach)
Saarbrücken/Ensheim
320
Do 24.09. 18:20141288 %1004
1004
966
Uml 1 (2)>= 10000Leicht bewölkt (610)Regen (schwach)
Saarbrücken/Ensheim
320
Do 24.09. 17:50141288 %1004
1004
966
Uml 1 (2)>= 10000Leicht bewölkt (610)Regen (schwach)
Saarbrücken/Ensheim
320
Do 24.09. 17:20151282 %1005
1005
967
S 2 (4)
SO - SW
>= 10000Wolkig (1100)
Leicht bewölkt (520)
Regen (schwach)
Saarbrücken/Ensheim
320
Do 24.09. 16:50151282 %1005
1005
967
S 3 (7)>= 10000Wolkig (1100)
Leicht bewölkt (520)
Regen (schwach)
Saarbrücken/Ensheim
320
Do 24.09. 16:20151282 %1005
1005
967
S 3 (10)
SSO - SW
>= 10000Wolkig (1100)
Leicht bewölkt (610)
 
Saarbrücken/Ensheim
320
Do 24.09. 15:50151282 %1006
1006
968
S 4 (11)
SSO - SW
>= 10000Stark bewölkt (1100)
Leicht bewölkt (460)
Regen/Nieselregen (schwach)
Saarbrücken/Ensheim
320
Do 24.09. 15:20151177 %1006
1006
968
S 3 (9)
SSO - SW
>= 10000Stark bewölkt (1100)
Leicht bewölkt (460)
Regen (schwach)
Saarbrücken/Ensheim
320
Do 24.09. 14:50151177 %1007
1007
969
SSW 4 (11)
SSO - SW
>= 10000Stark bewölkt (1300)
Leicht bewölkt (460)
Regen (schwach)
Saarbrücken/Ensheim
320
Do 24.09. 14:20161172 %1007
1007
969
SSW 4 (11)
SSO - SW
>= 10000Leicht bewölkt (460) 
Saarbrücken/Ensheim
320
Do 24.09. 13:50161277 %1007
1007
969
SSW 4 (12) - 6 (22)
SSO - SW
>= 10000Leicht bewölkt (520)Regen (schwach)
Saarbrücken/Ensheim
320
Do 24.09. 13:20161172 %1007
1007
969
SSW 3 (8)
S - WSW
>= 10000Leicht bewölkt (910) 
Saarbrücken/Ensheim
320
Do 24.09. 12:50161068 %1007
1007
969
S 2 (6)
SSO - SW
>= 10000Leicht bewölkt (790)Regen (schwach)
Saarbrücken/Ensheim
320
Do 24.09. 12:2015967 %1008
1008
970
SW 3 (8)
S - WSW
>= 10000Wolkig (1400)
Leicht bewölkt (910)
 
Saarbrücken/Ensheim
320
Do 24.09. 11:5015967 %1008
1008
970
S 2 (6)
SO - SW
>= 10000Stark bewölkt (1400)
Leicht bewölkt (910)
 
Saarbrücken/Ensheim
320
Do 24.09. 11:2014972 %1008
1008
970
SW 2 (6)
SSW - W
>= 10000Stark bewölkt (1300)
Leicht bewölkt (910)
 
Saarbrücken/Ensheim
320
Do 24.09. 10:5014972 %1009
1009
971
WSW 2 (6)>= 10000Stark bewölkt (1400)
Leicht bewölkt (910)
 
Saarbrücken/Ensheim
320
Do 24.09. 10:2013872 %1009
1009
971
SW 3 (7)>= 10000Nicht signifikant 
Saarbrücken/Ensheim
320
Do 24.09. 09:5013977 %1009
1009
971
WSW 2 (5)>= 10000Nicht signifikant 
Saarbrücken/Ensheim
320
Do 24.09. 09:2012876 %1009
1009
971
WSW 2 (6)>= 10000Nicht signifikant 
Saarbrücken/Ensheim
320
Do 24.09. 08:5012876 %1009
1009
971
WSW 3 (7)>= 10000Nicht signifikant 
Saarbrücken/Ensheim
320
Do 24.09. 08:2011987 %1008
1009
970
WSW 3 (8)>= 10000Nicht signifikant 
Saarbrücken/Ensheim
320
Do 24.09. 07:5011987 %1008
1009
970
WSW 4 (12)>= 10000Nicht signifikant 
Saarbrücken/Ensheim
320
Do 24.09. 07:20121088 %1007
1007
969
WSW 3 (10)>= 10000Leicht bewölkt (300) 
Saarbrücken/Ensheim
320
Do 24.09. 06:50131188 %1007
1007
969
WSW 3 (9)>= 10000Leicht bewölkt (300) 
Saarbrücken/Ensheim
320
Do 24.09. 06:20141394 %1007
1007
969
W 5 (17)>= 10000Stark bewölkt (300)
Leicht bewölkt (210)
Regen/Nieselregen (schwach)
Saarbrücken/Ensheim
320
Do 24.09. 05:50151388 %1006
1006
968
WSW 4 (14)>= 10000Wolkig (1200)
Leicht bewölkt (400)
 
Saarbrücken/Ensheim
320
Do 24.09. 05:20151494 %1006
1006
968
WSW 4 (12)>= 10000Stark bewölkt (1200)
Wolkig (300)
 
Saarbrücken/Ensheim
320
Do 24.09. 04:50151494 %1005
1005
967
SW 4 (13)>= 10000Stark bewölkt (1400)
Leicht bewölkt (340)
 
Saarbrücken/Ensheim
320
Do 24.09. 04:20151494 %1005
1005
967
SW 4 (13)>= 10000Wolkig (670)
Leicht bewölkt (430)
Regen (schwach)
Saarbrücken/Ensheim
320
Do 24.09. 03:50161488 %1005
1005
967
SW 4 (12)>= 10000Wolkig (910)Regen (schwach)
Saarbrücken/Ensheim
320
Do 24.09. 03:20161382 %1004
1004
966
SSW 4 (13)>= 10000Nicht signifikantRegen (schwach)
Saarbrücken/Ensheim
320
Do 24.09. 02:50171272 %1004
1004
966
SSW 4 (13)>= 10000Nicht signifikant 
Saarbrücken/Ensheim
320
Do 24.09. 02:20171272 %1004
1004
966
SW 4 (13)>= 10000Nicht signifikant 
Saarbrücken/Ensheim
320
Do 24.09. 01:50171272 %1004
1004
966
S 4 (13)
SSO - SW
>= 10000Nicht signifikant 
Saarbrücken/Ensheim
320
Do 24.09. 01:20171272 %1004
1004
966
S 3 (9)>= 10000Nicht signifikant 
Saarbrücken/Ensheim
320
Do 24.09. 00:50171272 %1005
1005
967
S 3 (8)
SSO - SW
>= 10000Nicht signifikant 
Saarbrücken/Ensheim
320
Do 24.09. 00:20171272 %1005
1005
967
S 3 (8)>= 10000Nicht signifikant 
Saarbrücken/Ensheim
320
Mi 23.09. 23:50171272 %1005
1005
967
S 2 (6)>= 10000Nicht signifikant 
Saarbrücken/Ensheim
320
Mi 23.09. 23:20171272 %1005
1005
967
S 3 (8)
SO - SSW
>= 10000Nicht signifikant 
Saarbrücken/Ensheim
320
Mi 23.09. 22:50171272 %1006
1006
968
S 3 (7)>= 10000Nicht signifikant 
Saarbrücken/Ensheim
320
Mi 23.09. 22:20171377 %1006
1006
968
S 2 (6)>= 10000Nicht signifikant 
Saarbrücken/Ensheim
320
Mi 23.09. 21:50171377 %1006
1006
968
S 3 (7)>= 10000Nicht signifikant 
Saarbrücken/Ensheim
320
Mi 23.09. 21:20171377 %1006
1006
968
S 2 (6)>= 10000Nicht signifikant 
Saarbrücken/Ensheim
320
Mi 23.09. 20:50171377 %1006
1006
968
S 2 (6)
SSO - SW
>= 10000Nicht signifikant 
Saarbrücken/Ensheim
320
Mi 23.09. 20:20161382 %1006
1006
968
SSW 2 (3)
S - WSW
>= 10000Nicht signifikant 
Saarbrücken/Ensheim
320
Mi 23.09. 19:50161488 %1006
1006
968
SSO 2 (3)
OSO - SSW
>= 10000Leicht bewölkt (1100) 
Saarbrücken/Ensheim
320
Mi 23.09. 19:20171482 %1006
1006
968
SO 2 (3)
O - S
>= 10000Leicht bewölkt (1200) 
Saarbrücken/Ensheim
320
Mi 23.09. 18:50171588 %1007
1007
969
Uml 1 (2)>= 10000Leicht bewölkt (1200) 
Saarbrücken/Ensheim
320
Mi 23.09. 18:20181477 %1007
1007
969
Uml 1 (2)>= 10000Leicht bewölkt (1200) 
Saarbrücken/Ensheim
320
Mi 23.09. 17:50171588 %1007
1007
969
SSO 2 (3)
O - WSW
>= 10000Leicht bewölkt Cb (1100) 
Saarbrücken/Ensheim
320
Mi 23.09. 17:20151494 %1007
1007
969
W 2 (6)
SW - NW
Bald Übergang zu:
SW 3 (10)
>= 10000Wolkig Cb (1100)
Leicht bewölkt (300)
Regen-Schauer

Altimeter: Einstellung am Altimeter (Höhenmesser), die Höhe 0 muss auf diesen Luftdruckwert zeigen, damit das Gerät die Stationshöhe richtig anzeigt.

NN: Luftdruck reduziert auf "Normal Null", auf Meereshöhe, dieser von der Temperatur abhängige Wert wird bisweilen unkorrekt einfach als "Luftdruck" bezeichnet. Eigentlich nur eine fiktive Größe, die es erlaubt, Stationen auf unterschiedlichen Höhen miteinander zu vergleichen.

Station: Realer Luftdruck an der Station.